createdAt,value
2022-12-14T00:00:54.387Z,100138.88
2022-12-14T00:03:26.435Z,100136.80
2022-12-14T00:05:58.419Z,100132.85
2022-12-14T00:08:30.307Z,100124.08
2022-12-14T00:11:02.356Z,100128.40
2022-12-14T00:13:34.509Z,100130.38
2022-12-14T00:16:12.049Z,100127.30
2022-12-14T00:18:45.125Z,100125.28
2022-12-14T00:21:16.765Z,100119.34
2022-12-14T00:23:50.134Z,100117.25
2022-12-14T00:26:30.979Z,100114.93
2022-12-14T00:29:03.705Z,100112.05
2022-12-14T00:31:36.332Z,100111.17
2022-12-14T00:34:08.267Z,100110.20
2022-12-14T00:36:40.054Z,100107.70
2022-12-14T00:39:12.093Z,100106.77
2022-12-14T00:41:44.238Z,100104.09
2022-12-14T00:44:15.905Z,100107.38
2022-12-14T00:46:47.687Z,100113.30
2022-12-14T00:49:20.292Z,100110.16
2022-12-14T00:51:52.056Z,100105.59
2022-12-14T00:54:23.760Z,100100.88
2022-12-14T00:56:55.490Z,100100.38
2022-12-14T00:59:27.663Z,100099.14
2022-12-14T01:02:01.476Z,100103.95
2022-12-14T01:04:33.336Z,100102.82
2022-12-14T01:07:05.143Z,100099.35
2022-12-14T01:09:36.862Z,100096.73
2022-12-14T01:12:09.026Z,100095.61
2022-12-14T01:14:41.125Z,100094.88
2022-12-14T01:17:15.042Z,100096.11
2022-12-14T01:19:48.946Z,100103.67
2022-12-14T01:22:21.270Z,100099.21
2022-12-14T01:24:52.887Z,100098.52
2022-12-14T01:27:25.015Z,100096.08
2022-12-14T01:29:56.671Z,100090.45
2022-12-14T01:32:28.468Z,100091.49
2022-12-14T01:35:00.303Z,100095.14
2022-12-14T01:37:32.355Z,100089.31
2022-12-14T01:40:04.311Z,100086.01
2022-12-14T01:42:37.611Z,100076.19
2022-12-14T01:45:21.463Z,100075.53
2022-12-14T01:47:57.342Z,100069.52
2022-12-14T01:50:36.701Z,100070.86
2022-12-14T01:53:13.636Z,100065.29
2022-12-14T01:55:49.117Z,100062.20
2022-12-14T01:58:23.315Z,100055.91
2022-12-14T02:00:59.693Z,100057.30
2022-12-14T02:03:35.651Z,100057.33
2022-12-14T02:06:13.249Z,100051.95
2022-12-14T02:08:46.680Z,100048.34
2022-12-14T02:11:25.044Z,100053.96
2022-12-14T02:13:56.692Z,100055.20
2022-12-14T02:16:28.566Z,100052.80
2022-12-14T02:19:00.240Z,100053.55
2022-12-14T02:21:49.866Z,100050.16
2022-12-14T02:24:47.399Z,100050.23
2022-12-14T02:27:51.686Z,100052.45
2022-12-14T02:30:24.421Z,100055.21
2022-12-14T02:33:09.928Z,100055.62
2022-12-14T02:35:47.788Z,100057.01
2022-12-14T02:38:42.978Z,100052.06
2022-12-14T02:41:22.736Z,100052.65
2022-12-14T02:44:02.787Z,100050.23
2022-12-14T02:46:44.076Z,100052.60
2022-12-14T02:49:28.977Z,100048.39
2022-12-14T02:52:07.399Z,100047.13
2022-12-14T02:54:45.877Z,100047.54
2022-12-14T02:57:25.074Z,100047.20
2022-12-14T02:59:58.584Z,100045.07
2022-12-14T03:02:31.843Z,100043.05
2022-12-14T03:05:03.687Z,100046.12
2022-12-14T03:07:41.505Z,100041.45
2022-12-14T03:10:30.702Z,100039.80
2022-12-14T03:13:09.181Z,100035.27
2022-12-14T03:15:44.066Z,100038.00
2022-12-14T03:18:22.582Z,100030.21
2022-12-14T03:20:56.428Z,100032.09
2022-12-14T03:23:34.444Z,100035.05
2022-12-14T03:26:13.216Z,100040.41
2022-12-14T03:28:47.785Z,100042.72
2022-12-14T03:31:23.181Z,100044.50
2022-12-14T03:33:58.093Z,100044.79
2022-12-14T03:36:38.323Z,100042.09
2022-12-14T03:39:18.027Z,100049.58
2022-12-14T03:41:59.562Z,100041.56
2022-12-14T03:44:44.731Z,100040.76
2022-12-14T03:47:34.165Z,100034.98
2022-12-14T03:50:11.802Z,100027.52
2022-12-14T03:52:51.827Z,100026.98
2022-12-14T03:55:28.314Z,100018.02
2022-12-14T03:58:15.575Z,100018.25
2022-12-14T04:00:55.809Z,100012.91
2022-12-14T04:03:40.824Z,100013.77
2022-12-14T04:06:23.763Z,100010.89
2022-12-14T04:09:03.068Z,100009.88
2022-12-14T04:11:58.757Z,100008.33
2022-12-14T04:14:51.801Z,100010.98
2022-12-14T04:17:46.802Z,100015.30
2022-12-14T04:20:21.907Z,100022.44
2022-12-14T04:22:58.879Z,100017.01
2022-12-14T04:25:53.204Z,100018.32
2022-12-14T04:28:45.799Z,100022.79
2022-12-14T04:31:21.175Z,100016.45
2022-12-14T04:33:59.339Z,100018.41
2022-12-14T04:36:38.817Z,100013.83
2022-12-14T04:39:15.173Z,100011.46
2022-12-14T04:41:50.783Z,99999.20
2022-12-14T04:44:25.951Z,99998.63
2022-12-14T04:47:00.626Z,99995.83
2022-12-14T04:49:40.749Z,100000.59
2022-12-14T04:52:17.360Z,99994.96
2022-12-14T04:54:54.661Z,99992.63
2022-12-14T04:57:35.006Z,99993.84
2022-12-14T05:00:09.101Z,99988.25
2022-12-14T05:03:00.899Z,99991.35
2022-12-14T05:05:39.179Z,99991.62
2022-12-14T05:08:18.606Z,99986.80
2022-12-14T05:11:04.736Z,99988.27
2022-12-14T05:13:49.158Z,99983.83
2022-12-14T05:16:22.751Z,99981.42
2022-12-14T05:18:54.812Z,99980.05
2022-12-14T05:21:43.922Z,99977.14
2022-12-14T05:24:16.075Z,99972.07
2022-12-14T05:26:47.841Z,99970.91
2022-12-14T05:29:19.782Z,99971.77
2022-12-14T05:31:51.772Z,99966.85
2022-12-14T05:34:23.920Z,99961.04
2022-12-14T05:36:55.680Z,99959.35
2022-12-14T05:39:27.786Z,99956.59
2022-12-14T05:42:00.815Z,99955.02
2022-12-14T05:44:32.967Z,99954.73
2022-12-14T05:47:04.899Z,99953.11
2022-12-14T05:49:37.174Z,99955.10
2022-12-14T05:52:08.964Z,99952.61
2022-12-14T05:54:40.660Z,99952.47
2022-12-14T05:57:12.920Z,99958.26
2022-12-14T05:59:44.835Z,99954.20
2022-12-14T06:02:16.724Z,99954.34
2022-12-14T06:04:47.796Z,99954.77
2022-12-14T06:07:23.105Z,99956.66
2022-12-14T06:09:59.264Z,99955.69
2022-12-14T06:12:31.381Z,99950.25
2022-12-14T06:15:04.370Z,99949.58
2022-12-14T06:17:36.244Z,99951.30
2022-12-14T06:20:09.293Z,99947.40
2022-12-14T06:22:47.243Z,99956.56
2022-12-14T06:25:19.592Z,99949.05
2022-12-14T06:27:55.572Z,99950.91
2022-12-14T06:30:28.669Z,99950.55
2022-12-14T06:33:00.490Z,99949.29
2022-12-14T06:35:32.238Z,99945.81
2022-12-14T06:38:03.912Z,99951.04
2022-12-14T06:40:35.715Z,99944.98
2022-12-14T06:43:07.653Z,99944.00
2022-12-14T06:45:39.680Z,99943.29
2022-12-14T06:48:11.476Z,99937.02
2022-12-14T06:50:43.885Z,99947.23
2022-12-14T06:53:15.962Z,99943.91
2022-12-14T06:55:49.317Z,99944.59
2022-12-14T06:58:21.221Z,99944.92
2022-12-14T07:00:53.359Z,99941.17
2022-12-14T07:03:25.532Z,99939.20
2022-12-14T07:06:00.179Z,99937.15
2022-12-14T07:08:33.380Z,99933.13
2022-12-14T07:11:07.103Z,99936.21
2022-12-14T07:13:39.484Z,99930.99
2022-12-14T07:16:15.424Z,99929.71
2022-12-14T07:18:48.286Z,99928.27
2022-12-14T07:21:21.704Z,99925.69
2022-12-14T07:23:54.218Z,99927.52
2022-12-14T07:26:28.112Z,99928.57
2022-12-14T07:29:01.199Z,99926.17
2022-12-14T07:31:33.364Z,99925.13
2022-12-14T07:34:05.895Z,99916.84
2022-12-14T07:36:36.084Z,99917.38
2022-12-14T07:39:08.786Z,99922.38
2022-12-14T07:41:40.622Z,99916.77
2022-12-14T07:44:15.054Z,99913.61
2022-12-14T07:46:46.825Z,99914.32
2022-12-14T07:49:18.711Z,99915.04
2022-12-14T07:51:50.503Z,99904.75
2022-12-14T07:54:22.295Z,99907.20
2022-12-14T07:56:54.134Z,99908.48
2022-12-14T07:59:26.608Z,99902.31
2022-12-14T08:01:57.400Z,99900.52
2022-12-14T08:04:29.179Z,99901.24
2022-12-14T08:07:03.817Z,99897.48
2022-12-14T08:09:35.539Z,99895.65
2022-12-14T08:12:07.395Z,99882.55
2022-12-14T08:14:39.116Z,99882.35
2022-12-14T08:17:10.887Z,99883.26
2022-12-14T08:19:42.632Z,99882.78
2022-12-14T08:22:14.962Z,99874.53
2022-12-14T08:24:49.636Z,99873.13
2022-12-14T08:27:21.894Z,99865.39
2022-12-14T08:29:53.949Z,99869.34
2022-12-14T08:32:30.965Z,99860.34
2022-12-14T08:35:08.928Z,99857.96
2022-12-14T08:37:45.759Z,99851.98
2022-12-14T08:40:19.141Z,99854.13
2022-12-14T08:42:53.396Z,99854.63
2022-12-14T08:45:25.252Z,99852.29
2022-12-14T08:47:59.613Z,99854.33
2022-12-14T08:50:32.202Z,99854.15
2022-12-14T08:53:04.062Z,99848.96
2022-12-14T08:55:38.784Z,99847.17
2022-12-14T08:58:11.342Z,99844.64
2022-12-14T09:00:43.424Z,99839.14
2022-12-14T09:03:15.602Z,99842.80
2022-12-14T09:05:47.478Z,99841.42
2022-12-14T09:08:19.411Z,99837.84
2022-12-14T09:10:53.147Z,99834.78
2022-12-14T09:13:25.098Z,99828.29
2022-12-14T09:16:01.653Z,99831.37
2022-12-14T09:18:34.410Z,99824.11
2022-12-14T09:21:07.095Z,99818.75
2022-12-14T09:23:37.920Z,99819.11
2022-12-14T09:26:13.953Z,99815.98
2022-12-14T09:28:49.536Z,99813.54
2022-12-14T09:31:23.798Z,99809.08
2022-12-14T09:33:56.916Z,99806.44
2022-12-14T09:36:30.138Z,99802.95
2022-12-14T09:39:02.208Z,99798.34
2022-12-14T09:41:50.762Z,99792.83
2022-12-14T09:44:36.833Z,99788.40
2022-12-14T09:47:12.651Z,99788.46
2022-12-14T09:49:48.147Z,99785.83
2022-12-14T09:52:24.789Z,99781.85
2022-12-14T09:54:58.155Z,99779.39
2022-12-14T09:57:34.534Z,99773.09
2022-12-14T10:00:12.850Z,99768.66
2022-12-14T10:03:02.740Z,99765.41
2022-12-14T10:05:53.197Z,99764.52
2022-12-14T10:08:29.520Z,99763.35
2022-12-14T10:11:08.372Z,99757.21
2022-12-14T10:13:48.590Z,99755.13
2022-12-14T10:16:31.946Z,99746.13
2022-12-14T10:19:28.755Z,99746.02
2022-12-14T10:22:06.831Z,99742.80
2022-12-14T10:24:43.476Z,99744.35
2022-12-14T10:27:25.627Z,99745.00
2022-12-14T10:30:02.408Z,99738.05
2022-12-14T10:32:39.002Z,99733.80
2022-12-14T10:35:18.540Z,99729.57
2022-12-14T10:37:59.340Z,99729.85
2022-12-14T10:40:34.705Z,99728.23
2022-12-14T10:43:23.557Z,99722.66
2022-12-14T10:46:02.099Z,99715.00
2022-12-14T10:48:47.247Z,99715.98
2022-12-14T10:51:26.763Z,99714.09
2022-12-14T10:54:04.461Z,99711.29
2022-12-14T10:56:40.209Z,99705.69
2022-12-14T10:59:41.366Z,99702.64
2022-12-14T11:02:19.825Z,99695.61
2022-12-14T11:04:55.556Z,99690.27
2022-12-14T11:07:39.022Z,99685.42
2022-12-14T11:10:19.428Z,99682.09
2022-12-14T11:13:03.628Z,99678.61
2022-12-14T11:15:38.050Z,99677.05
2022-12-14T11:18:32.123Z,99668.86
2022-12-14T11:21:06.400Z,99662.44
2022-12-14T11:23:41.482Z,99658.27
2022-12-14T11:26:17.584Z,99654.27
2022-12-14T11:28:53.087Z,99655.52
2022-12-14T11:31:29.944Z,99657.15
2022-12-14T11:34:03.454Z,99653.77
2022-12-14T11:36:37.847Z,99650.23
2022-12-14T11:39:22.515Z,99645.22
2022-12-14T11:42:04.376Z,99642.16
2022-12-14T11:44:38.458Z,99640.86
2022-12-14T11:47:15.679Z,99639.77
2022-12-14T11:49:49.444Z,99628.23
2022-12-14T11:52:23.668Z,99632.42
2022-12-14T11:55:13.787Z,99629.58
2022-12-14T11:57:52.485Z,99622.05
2022-12-14T12:00:29.829Z,99622.77
2022-12-14T12:03:08.855Z,99621.13
2022-12-14T12:05:45.422Z,99615.75
2022-12-14T12:08:26.169Z,99613.93
2022-12-14T12:11:02.445Z,99615.80
2022-12-14T12:13:38.259Z,99614.13
2022-12-14T12:16:18.371Z,99610.39
2022-12-14T12:18:53.717Z,99611.98
2022-12-14T12:21:29.434Z,99607.80
2022-12-14T12:24:06.731Z,99599.29
2022-12-14T12:26:42.574Z,99597.14
2022-12-14T12:29:20.585Z,99596.90
2022-12-14T12:32:01.021Z,99597.25
2022-12-14T12:34:38.524Z,99594.61
2022-12-14T12:37:26.360Z,99588.22
2022-12-14T12:40:04.773Z,99586.14
2022-12-14T12:42:44.964Z,99580.75
2022-12-14T12:45:21.573Z,99581.40
2022-12-14T12:48:00.385Z,99576.69
2022-12-14T12:50:36.358Z,99570.17
2022-12-14T12:53:12.653Z,99564.94
2022-12-14T12:55:48.185Z,99560.77
2022-12-14T12:58:25.278Z,99564.27
2022-12-14T13:01:01.684Z,99562.45
2022-12-14T13:03:38.758Z,99566.58
2022-12-14T13:06:19.782Z,99565.08
2022-12-14T13:08:59.054Z,99565.58
2022-12-14T13:11:37.091Z,99557.92
2022-12-14T13:14:18.651Z,99553.23
2022-12-14T13:16:53.061Z,99551.85
2022-12-14T13:22:27.092Z,99551.34
2022-12-14T13:25:03.897Z,99554.10
2022-12-14T13:28:16.405Z,99549.37
2022-12-14T13:31:03.796Z,99545.40
2022-12-14T13:33:52.121Z,99539.58
2022-12-14T13:36:52.664Z,99536.92
2022-12-14T13:40:13.495Z,99532.31
2022-12-14T13:42:54.391Z,99534.41
2022-12-14T13:45:33.485Z,99534.79
2022-12-14T13:48:13.969Z,99527.86
2022-12-14T13:50:57.703Z,99526.63
2022-12-14T13:53:42.765Z,99532.13
2022-12-14T13:56:27.791Z,99533.52
2022-12-14T13:59:07.668Z,99532.00
2022-12-14T14:01:57.847Z,99533.09
2022-12-14T14:04:30.928Z,99526.38
2022-12-14T14:07:33.661Z,99525.67
2022-12-14T14:10:16.695Z,99522.19
2022-12-14T14:12:48.390Z,99520.89
2022-12-14T14:15:32.616Z,99517.78
2022-12-14T14:18:15.898Z,99518.65
2022-12-14T14:20:52.558Z,99516.08
2022-12-14T14:23:38.876Z,99515.41
2022-12-14T14:26:21.072Z,99510.90
2022-12-14T14:29:20.425Z,99509.77
2022-12-14T14:32:00.590Z,99507.49
2022-12-14T14:34:41.449Z,99502.51
2022-12-14T14:37:29.580Z,99501.67
2022-12-14T14:40:25.979Z,99501.05
2022-12-14T14:43:08.518Z,99495.23
2022-12-14T14:45:45.309Z,99486.45
2022-12-14T14:48:34.155Z,99483.83
2022-12-14T14:51:16.176Z,99486.98
2022-12-14T14:53:50.188Z,99487.14
2022-12-14T14:56:39.945Z,99487.69
2022-12-14T14:59:43.307Z,99483.73
2022-12-14T15:02:31.836Z,99478.79
2022-12-14T15:05:33.375Z,99476.69
2022-12-14T15:07:59.564Z,99472.55
2022-12-14T15:10:37.337Z,99468.15
2022-12-14T15:13:24.013Z,99463.50
2022-12-14T15:15:56.596Z,99454.67
2022-12-14T15:18:30.357Z,99452.81
2022-12-14T15:21:06.671Z,99448.83
2022-12-14T15:23:40.805Z,99450.59
2022-12-14T15:26:17.423Z,99453.10
2022-12-14T15:28:58.054Z,99451.69
2022-12-14T15:31:35.729Z,99449.73
2022-12-14T15:34:07.842Z,99446.11
2022-12-14T15:36:43.450Z,99441.63
2022-12-14T15:39:39.852Z,99434.17
2022-12-14T15:42:17.015Z,99429.73
2022-12-14T15:44:57.023Z,99431.78
2022-12-14T15:47:31.120Z,99427.52
2022-12-14T15:53:12.457Z,99423.34
2022-12-14T15:55:43.729Z,99429.61
2022-12-14T15:58:21.193Z,99426.55
2022-12-14T16:00:57.517Z,99416.04
2022-12-14T16:03:36.434Z,99412.41
2022-12-14T16:06:10.311Z,99407.98
2022-12-14T16:08:48.737Z,99413.73
2022-12-14T16:11:25.891Z,99409.94
2022-12-14T16:13:59.366Z,99400.64
2022-12-14T16:16:31.682Z,99402.04
2022-12-14T16:19:26.052Z,99396.27
2022-12-14T16:22:16.852Z,99391.40
2022-12-14T16:25:03.043Z,99392.88
2022-12-14T16:27:39.070Z,99390.52
2022-12-14T16:30:21.828Z,99383.02
2022-12-14T16:33:04.469Z,99379.10
2022-12-14T16:35:38.417Z,99378.16
2022-12-14T16:38:13.038Z,99373.35
2022-12-14T16:40:57.401Z,99368.61
2022-12-14T16:43:32.897Z,99366.34
2022-12-14T16:46:18.564Z,99361.62
2022-12-14T16:49:21.754Z,99361.95
2022-12-14T16:52:09.407Z,99360.82
2022-12-14T16:54:41.553Z,99350.92
2022-12-14T16:57:21.982Z,99350.14
2022-12-14T17:00:01.821Z,99338.89
2022-12-14T17:02:36.245Z,99332.07
2022-12-14T17:05:17.727Z,99323.91
2022-12-14T17:07:50.107Z,99325.23
2022-12-14T17:10:23.878Z,99323.30
2022-12-14T17:12:58.810Z,99321.39
2022-12-14T17:15:33.524Z,99325.05
2022-12-14T17:18:08.265Z,99329.85
2022-12-14T17:20:41.146Z,99330.52
2022-12-14T17:23:18.911Z,99329.67
2022-12-14T17:25:51.056Z,99330.33
2022-12-14T17:28:25.504Z,99324.08
2022-12-14T17:31:01.899Z,99322.70
2022-12-14T17:33:34.381Z,99326.64
2022-12-14T17:36:07.048Z,99325.48
2022-12-14T17:38:38.147Z,99322.84
2022-12-14T17:41:13.701Z,99318.92
2022-12-14T17:43:51.000Z,99321.20
2022-12-14T17:46:29.487Z,99320.41
2022-12-14T17:49:06.323Z,99328.66
2022-12-14T17:51:42.135Z,99327.80
2022-12-14T17:54:17.944Z,99328.46
2022-12-14T17:56:49.749Z,99325.31
2022-12-14T17:59:21.756Z,99326.68
2022-12-14T18:01:53.848Z,99329.31
2022-12-14T18:04:25.985Z,99321.45
2022-12-14T18:06:57.873Z,99323.18
2022-12-14T18:09:29.639Z,99323.30
2022-12-14T18:12:22.612Z,99319.08
2022-12-14T18:14:53.558Z,99316.41
2022-12-14T18:17:25.344Z,99314.63
2022-12-14T18:19:57.390Z,99317.90
2022-12-14T18:22:29.380Z,99321.44
2022-12-14T18:25:01.396Z,99324.67
2022-12-14T18:27:33.463Z,99325.81
2022-12-14T18:30:05.979Z,99324.96
2022-12-14T18:32:38.265Z,99324.70
2022-12-14T18:35:17.045Z,99323.40
2022-12-14T18:37:49.421Z,99320.23
2022-12-14T18:40:24.569Z,99316.79
2022-12-14T18:42:57.051Z,99317.89
2022-12-14T18:45:31.284Z,99317.88
2022-12-14T18:48:03.241Z,99318.34
2022-12-14T18:50:39.563Z,99318.80
2022-12-14T18:53:17.390Z,99314.89
2022-12-14T18:55:50.509Z,99310.59
2022-12-14T18:58:24.273Z,99313.45
2022-12-14T19:00:59.000Z,99314.89
2022-12-14T19:03:34.327Z,99314.36
2022-12-14T19:06:42.449Z,99305.50
2022-12-14T19:09:00.536Z,99310.83
2022-12-14T19:11:35.361Z,99309.59
2022-12-14T19:14:07.231Z,99306.65
2022-12-14T19:16:39.624Z,99302.46
2022-12-14T19:19:11.563Z,99296.88
2022-12-14T19:21:43.539Z,99302.62
2022-12-14T19:24:15.551Z,99301.43
2022-12-14T19:26:49.490Z,99300.16
2022-12-14T19:29:21.694Z,99309.56
2022-12-14T19:31:54.577Z,99309.27
2022-12-14T19:34:28.273Z,99314.38
2022-12-14T19:37:00.381Z,99315.59
2022-12-14T19:39:32.141Z,99312.48
2022-12-14T19:42:04.085Z,99312.70
2022-12-14T19:44:36.877Z,99317.37
2022-12-14T19:47:12.035Z,99315.23
2022-12-14T19:49:44.973Z,99315.70
2022-12-14T19:52:17.164Z,99311.27
2022-12-14T19:54:48.882Z,99308.52
2022-12-14T19:57:21.383Z,99307.38
2022-12-14T19:59:57.186Z,99306.27
2022-12-14T20:02:29.829Z,99305.78
2022-12-14T20:05:02.581Z,99308.70
2022-12-14T20:07:38.757Z,99307.84
2022-12-14T20:10:13.888Z,99307.81
2022-12-14T20:12:45.801Z,99308.86
2022-12-14T20:15:17.805Z,99312.42
2022-12-14T20:17:49.816Z,99311.54
2022-12-14T20:20:23.081Z,99309.77
2022-12-14T20:22:55.035Z,99311.28
2022-12-14T20:25:26.954Z,99310.57
2022-12-14T20:27:59.025Z,99312.50
2022-12-14T20:30:31.625Z,99311.69
2022-12-14T20:33:03.575Z,99312.81
2022-12-14T20:35:35.901Z,99308.15
2022-12-14T20:38:08.278Z,99307.73
2022-12-14T20:40:40.136Z,99303.30
2022-12-14T20:43:12.239Z,99305.86
2022-12-14T20:45:44.965Z,99308.02
2022-12-14T20:48:16.805Z,99306.70
2022-12-14T20:50:49.875Z,99310.56
2022-12-14T20:53:23.406Z,99312.86
2022-12-14T20:55:55.163Z,99311.41
2022-12-14T20:58:26.890Z,99313.20
2022-12-14T21:01:05.843Z,99306.98
2022-12-14T21:03:38.045Z,99306.59
2022-12-14T21:06:11.842Z,99305.84
2022-12-14T21:09:01.660Z,99307.27
2022-12-14T21:11:51.983Z,99307.64
2022-12-14T21:14:25.732Z,99302.65
2022-12-14T21:16:57.974Z,99294.60
2022-12-14T21:19:30.459Z,99297.31
2022-12-14T21:22:02.403Z,99298.04
2022-12-14T21:27:31.041Z,99300.52
2022-12-14T21:30:03.386Z,99302.84
2022-12-14T21:32:37.959Z,99292.60
2022-12-14T21:35:10.845Z,99294.55
2022-12-14T21:37:43.425Z,99288.77
2022-12-14T21:40:35.835Z,99290.45
2022-12-14T21:43:08.196Z,99289.59
2022-12-14T21:45:44.062Z,99286.13
2022-12-14T21:48:17.765Z,99288.02
2022-12-14T21:50:51.357Z,99286.95
2022-12-14T21:53:23.215Z,99287.14
2022-12-14T21:56:15.390Z,99287.24
2022-12-14T21:58:54.037Z,99284.75
2022-12-14T22:01:26.693Z,99292.24
2022-12-14T22:03:58.710Z,99282.54
2022-12-14T22:06:30.668Z,99281.94
2022-12-14T22:09:04.643Z,99281.89
2022-12-14T22:11:36.777Z,99285.80
2022-12-14T22:14:08.665Z,99279.50
2022-12-14T22:16:41.352Z,99279.92
2022-12-14T22:19:16.740Z,99278.58
2022-12-14T22:21:49.591Z,99285.48
2022-12-14T22:24:23.458Z,99282.00
2022-12-14T22:26:55.733Z,99280.86
2022-12-14T22:29:27.672Z,99279.35
2022-12-14T22:32:02.666Z,99277.13
2022-12-14T22:34:34.993Z,99277.73
2022-12-14T22:37:08.000Z,99279.83
2022-12-14T22:39:40.797Z,99275.52
2022-12-14T22:42:13.753Z,99272.48
2022-12-14T22:44:46.275Z,99268.67
2022-12-14T22:47:21.556Z,99274.77
2022-12-14T22:49:53.458Z,99274.44
2022-12-14T22:52:25.263Z,99275.40
2022-12-14T22:54:57.224Z,99275.66
2022-12-14T22:57:30.595Z,99275.24
2022-12-14T23:00:07.464Z,99277.73
2022-12-14T23:02:43.084Z,99279.13
2022-12-14T23:05:19.868Z,99285.09
2022-12-14T23:07:53.337Z,99288.29
2022-12-14T23:10:43.243Z,99290.67
2022-12-14T23:13:33.333Z,99293.68
2022-12-14T23:16:23.824Z,99296.73
2022-12-14T23:19:13.435Z,99293.99
2022-12-14T23:22:02.508Z,99299.70
2022-12-14T23:24:52.540Z,99295.08
2022-12-14T23:27:41.900Z,99293.36
2022-12-14T23:30:32.219Z,99288.77
2022-12-14T23:33:21.425Z,99296.48
2022-12-14T23:36:10.833Z,99294.09
2022-12-14T23:38:59.928Z,99293.05
2022-12-14T23:41:49.827Z,99296.05
2022-12-14T23:44:39.440Z,99293.17
2022-12-14T23:47:29.093Z,99289.63
2022-12-14T23:50:19.721Z,99291.90
2022-12-14T23:53:09.558Z,99294.78
2022-12-14T23:55:59.792Z,99296.89
2022-12-14T23:58:51.817Z,99290.41
